Carthage, Texas
Current Conditions -  °F | °C
As of 12:15 PM on Thursday 29 Jan 2015 (Local Time) from KASL Reporting Station
Clear Clear  
Wind Chill: 73°   Ceiling: Unl
Heat Index: 73°   Visibility: NA
Dew Point: 55°   Wind: 5mph
Humidity: 52%   Direction: 310°NW
Pressure: 30.23"   Gusts: NA
Location:  32.17°N, 94.34°W
Report Text: KASL 291815Z AUTO 31004KT CLR 23/13 A3023 RMK AO1 T02300126
Loading
Personal Weather Stations






























Interactive Weather Map New forecast layout! Learn more

10-Day Weather Forecast

Advertisements
Track Severe Weather on mobile